Time;durP1;ratioP1;P1;durP2;ratioP2;P2;SDS_P1;SDS_P2;PMS_P1;PMS_P2;Temp;Humidity;BMP_temperature;BMP_pressure;BME280_temperature;BME280_humidity;BME280_pressure;Samples;Min_cycle;Max_cycle;Signal;HPM_P1;HPM_P2
2023/12/26 00:01:19;;;;;;;1.77;0.93;;;;;;;12.04;100.00;100528.28;5281668;28;20032;-82
2023/12/26 00:03:51;;;;;;;5.43;0.95;;;;;;;12.04;100.00;100533.53;5283078;28;20031;-81
2023/12/26 00:06:23;;;;;;;2.47;1.10;;;;;;;12.00;100.00;100530.38;5282394;28;20028;-81
2023/12/26 00:08:55;;;;;;;3.25;1.02;;;;;;;11.95;100.00;100529.16;5281888;28;20073;-81
2023/12/26 00:11:28;;;;;;;2.08;0.93;;;;;;;11.88;100.00;100524.50;5269582;28;20051;-81
2023/12/26 00:13:59;;;;;;;3.05;0.98;;;;;;;11.95;100.00;100535.25;5281663;28;20028;-81
2023/12/26 00:16:31;;;;;;;3.17;1.17;;;;;;;11.83;100.00;100516.25;5280116;28;20054;-81
2023/12/26 00:19:03;;;;;;;3.35;0.98;;;;;;;11.87;100.00;100525.47;5281484;28;20035;-81
2023/12/26 00:21:39;;;;;;;2.45;1.00;;;;;;;11.96;100.00;100528.19;5280839;28;20032;-81
2023/12/26 00:24:11;;;;;;;2.97;1.02;;;;;;;11.88;100.00;100518.44;5282159;28;20039;-81
2023/12/26 00:26:43;;;;;;;1.35;0.90;;;;;;;11.79;100.00;100514.84;5282678;28;20042;-81
2023/12/26 00:29:15;;;;;;;3.70;1.25;;;;;;;11.84;100.00;100517.06;5280695;28;20051;-81
2023/12/26 00:31:47;;;;;;;3.20;0.90;;;;;;;11.87;100.00;100522.84;5281425;28;20034;-81
2023/12/26 00:34:19;;;;;;;1.95;1.08;;;;;;;11.80;100.00;100521.75;5270098;28;20040;-81
2023/12/26 00:36:51;;;;;;;1.90;0.80;;;;;;;11.80;100.00;100524.38;5282461;28;20401;-81
2023/12/26 00:39:22;;;;;;;3.25;1.25;;;;;;;11.80;100.00;100528.81;5278738;28;20054;-81
2023/12/26 00:41:54;;;;;;;1.75;0.77;;;;;;;11.73;100.00;100525.09;5281308;28;20034;-81
2023/12/26 00:44:27;;;;;;;2.65;1.02;;;;;;;11.71;100.00;100522.63;5278303;28;20028;-81
2023/12/26 00:46:59;;;;;;;3.20;1.00;;;;;;;11.76;100.00;100537.94;5268858;28;20039;-81
2023/12/26 00:49:31;;;;;;;1.58;0.80;;;;;;;11.77;100.00;100542.22;5280613;28;20455;-81
2023/12/26 00:52:03;;;;;;;3.13;1.10;;;;;;;11.71;100.00;100543.63;5282786;28;20040;-81
2023/12/26 00:54:36;;;;;;;3.05;0.90;;;;;;;11.75;100.00;100549.41;5282165;28;20048;-81
2023/12/26 00:57:08;;;;;;;1.85;0.80;;;;;;;11.79;100.00;100548.16;5282882;28;20031;-81
2023/12/26 00:59:40;;;;;;;1.60;0.70;;;;;;;11.77;100.00;100544.84;5282415;28;20384;-81
2023/12/26 01:02:12;;;;;;;2.08;0.80;;;;;;;11.67;100.00;100542.28;5286104;28;20367;-81
2023/12/26 01:04:43;;;;;;;4.00;0.90;;;;;;;11.61;100.00;100542.84;5289253;28;20120;-81
2023/12/26 01:07:15;;;;;;;1.98;0.73;;;;;;;11.67;100.00;100550.13;5289671;28;20031;-81
2023/12/26 01:09:47;;;;;;;1.90;0.70;;;;;;;11.71;100.00;100555.94;5288770;28;20028;-81
2023/12/26 01:12:19;;;;;;;4.18;1.13;;;;;;;11.67;100.00;100558.00;5288116;28;20145;-81
2023/12/26 01:14:51;;;;;;;3.08;1.00;;;;;;;11.66;100.00;100551.09;5289541;28;20036;-81
2023/12/26 01:17:23;;;;;;;4.80;0.70;;;;;;;11.68;100.00;100562.28;5289126;28;20508;-81
2023/12/26 01:19:55;;;;;;;2.38;0.88;;;;;;;11.65;100.00;100555.50;5286278;28;20409;-81
2023/12/26 01:22:27;;;;;;;1.73;0.77;;;;;;;11.73;100.00;100556.59;5288316;28;20036;-81
2023/12/26 01:24:59;;;;;;;2.53;0.82;;;;;;;11.69;100.00;100556.06;5289526;28;20068;-81
2023/12/26 01:27:33;;;;;;;1.75;0.80;;;;;;;11.71;100.00;100572.50;5289430;28;20040;-81
2023/12/26 01:30:05;;;;;;;1.73;1.00;;;;;;;11.63;100.00;100561.88;5286333;28;20028;-81
2023/12/26 01:32:37;;;;;;;1.85;1.00;;;;;;;11.65;100.00;100566.00;5287834;28;20036;-81
2023/12/26 01:35:09;;;;;;;2.03;1.17;;;;;;;11.58;100.00;100574.59;5288157;28;20042;-81
2023/12/26 01:37:41;;;;;;;2.38;1.20;;;;;;;11.62;100.00;100581.22;5287205;28;20321;-81
2023/12/26 01:40:13;;;;;;;1.60;1.10;;;;;;;11.66;100.00;100586.03;5288169;28;20028;-81
2023/12/26 01:42:46;;;;;;;2.03;1.30;;;;;;;11.57;100.00;100567.72;5287229;28;20028;-81
2023/12/26 01:45:18;;;;;;;2.33;1.33;;;;;;;11.63;100.00;100580.22;5286831;28;20028;-81
2023/12/26 01:47:55;;;;;;;3.20;1.27;;;;;;;11.69;100.00;100591.00;5277937;28;20042;-81
2023/12/26 01:50:27;;;;;;;1.85;1.20;;;;;;;11.41;100.00;100544.72;5284606;28;20476;-81
2023/12/26 01:52:59;;;;;;;3.90;1.50;;;;;;;11.71;100.00;100590.88;5299212;28;20035;-81
2023/12/26 01:55:31;;;;;;;2.88;1.90;;;;;;;11.70;100.00;100594.44;5290825;28;20056;-81
2023/12/26 01:58:04;;;;;;;2.40;1.60;;;;;;;11.69;100.00;100593.63;5289664;28;20044;-81
2023/12/26 02:00:35;;;;;;;1.60;1.25;;;;;;;11.59;100.00;100586.75;5290712;28;20020;-81
2023/12/26 02:03:07;;;;;;;1.58;1.02;;;;;;;11.71;100.00;100605.78;5274857;28;20049;-81
2023/12/26 02:05:42;;;;;;;3.13;1.20;;;;;;;11.77;100.00;100606.03;5286431;28;20366;-81
2023/12/26 02:08:15;;;;;;;4.15;1.10;;;;;;;11.74;100.00;100597.59;5288473;28;20035;-82
2023/12/26 02:10:47;;;;;;;1.60;0.90;;;;;;;11.75;100.00;100601.91;5286818;28;20031;-81
2023/12/26 02:13:19;;;;;;;2.08;1.02;;;;;;;11.73;100.00;100603.84;5286264;28;20042;-82
2023/12/26 02:15:53;;;;;;;1.00;0.70;;;;;;;11.76;100.00;100608.81;5282475;28;20043;-82
2023/12/26 02:18:25;;;;;;;2.72;1.15;;;;;;;11.79;100.00;100614.59;5285220;28;20031;-82
2023/12/26 02:20:57;;;;;;;1.90;1.00;;;;;;;11.75;100.00;100609.78;5280225;28;20036;-82
2023/12/26 02:23:31;;;;;;;1.40;0.70;;;;;;;11.79;100.00;100611.16;5282412;28;20033;-82
2023/12/26 02:26:04;;;;;;;1.42;0.70;;;;;;;11.77;100.00;100613.06;5285857;28;20036;-82
2023/12/26 02:28:37;;;;;;;1.52;0.82;;;;;;;11.74;100.00;100611.53;5281626;28;20541;-82
2023/12/26 02:31:10;;;;;;;1.50;0.70;;;;;;;11.80;100.00;100618.03;5285115;28;20042;-82
2023/12/26 02:33:45;;;;;;;1.88;0.90;;;;;;;11.77;100.00;100623.56;5282034;28;20094;-82
2023/12/26 02:36:17;;;;;;;1.50;0.90;;;;;;;11.79;100.00;100622.47;5281801;28;20043;-82
2023/12/26 02:38:49;;;;;;;1.45;0.70;;;;;;;11.78;100.00;100626.06;5282750;28;20032;-82
2023/12/26 02:41:21;;;;;;;1.45;0.80;;;;;;;11.61;100.00;100603.19;5281382;28;20033;-82
2023/12/26 02:43:53;;;;;;;1.67;0.90;;;;;;;11.68;100.00;100604.25;5281522;28;20031;-82
2023/12/26 02:46:25;;;;;;;2.17;0.90;;;;;;;11.68;100.00;100620.00;5281411;28;20235;-82
2023/12/26 02:48:57;;;;;;;2.28;1.10;;;;;;;11.68;100.00;100614.75;5283530;28;20066;-82
2023/12/26 02:51:28;;;;;;;1.80;1.45;;;;;;;11.68;100.00;100618.22;5283046;28;20036;-82
2023/12/26 02:54:00;;;;;;;1.60;1.02;;;;;;;11.66;100.00;100607.00;5282196;28;20045;-83
2023/12/26 02:56:32;;;;;;;2.67;1.20;;;;;;;11.62;100.00;100613.53;5280365;28;20040;-82
2023/12/26 02:59:04;;;;;;;2.40;1.25;;;;;;;11.69;100.00;100619.84;5281510;28;20038;-82
2023/12/26 03:01:36;;;;;;;2.72;1.30;;;;;;;11.71;100.00;100627.59;5279322;28;20388;-82
2023/12/26 03:04:08;;;;;;;2.05;1.30;;;;;;;11.70;100.00;100625.94;5279917;28;20389;-82
2023/12/26 03:06:40;;;;;;;3.60;1.67;;;;;;;11.66;100.00;100638.50;5283173;28;20040;-82
2023/12/26 03:09:12;;;;;;;1.90;1.60;;;;;;;11.68;100.00;100641.00;5281268;28;20048;-82
2023/12/26 03:11:44;;;;;;;2.65;2.22;;;;;;;11.72;100.00;100665.16;5285045;28;20036;-82
2023/12/26 03:14:16;;;;;;;4.70;2.20;;;;;;;11.66;100.00;100677.03;5280518;28;20034;-82
2023/12/26 03:16:49;;;;;;;2.90;1.92;;;;;;;11.71;100.00;100661.72;5279416;28;20039;-82
2023/12/26 03:19:20;;;;;;;4.20;2.25;;;;;;;11.74;100.00;100647.47;5282039;28;20107;-82
2023/12/26 03:21:52;;;;;;;2.88;2.00;;;;;;;11.68;100.00;100654.94;5279970;28;20028;-82
2023/12/26 03:24:24;;;;;;;5.90;2.60;;;;;;;11.67;100.00;100669.06;5279950;28;20032;-82
2023/12/26 03:26:56;;;;;;;4.35;2.50;;;;;;;11.68;100.00;100677.75;5278765;28;20046;-82
2023/12/26 03:29:28;;;;;;;4.25;2.13;;;;;;;11.68;100.00;100675.13;5278370;28;20036;-82
2023/12/26 03:32:00;;;;;;;5.32;2.55;;;;;;;11.63;100.00;100672.06;5278270;28;20040;-82
2023/12/26 03:34:32;;;;;;;5.13;2.58;;;;;;;11.63;100.00;100674.69;5280004;28;20044;-82
2023/12/26 03:37:04;;;;;;;3.13;2.45;;;;;;;11.66;100.00;100669.16;5282633;28;20032;-83
2023/12/26 03:39:37;;;;;;;5.50;2.50;;;;;;;11.60;100.00;100670.59;5279275;28;20055;-82
2023/12/26 03:42:09;;;;;;;4.57;2.25;;;;;;;11.59;100.00;100675.94;5276409;28;20043;-82
2023/12/26 03:44:41;;;;;;;4.20;2.30;;;;;;;11.62;100.00;100670.44;5280871;28;20405;-82
2023/12/26 03:47:13;;;;;;;4.13;2.22;;;;;;;11.62;100.00;100673.88;5281813;28;20035;-82
2023/12/26 03:49:45;;;;;;;3.92;2.45;;;;;;;11.63;100.00;100678.19;5279512;28;20833;-82
2023/12/26 03:52:16;;;;;;;5.65;2.50;;;;;;;11.63;100.00;100677.31;5280885;28;20380;-82
2023/12/26 03:54:48;;;;;;;6.68;2.05;;;;;;;11.64;100.00;100681.63;5283149;28;20054;-82
2023/12/26 03:57:20;;;;;;;4.88;2.20;;;;;;;11.61;100.00;100681.91;5279460;28;20304;-82
2023/12/26 03:59:52;;;;;;;5.47;2.28;;;;;;;11.61;100.00;100687.97;5273199;28;20045;-82
2023/12/26 04:02:24;;;;;;;4.43;1.90;;;;;;;11.66;100.00;100705.91;5280810;28;20020;-82
2023/12/26 04:04:56;;;;;;;4.85;1.90;;;;;;;11.64;100.00;100692.94;5284146;28;20279;-82
2023/12/26 04:07:28;;;;;;;4.15;1.80;;;;;;;11.63;100.00;100696.53;5273167;28;20549;-82
2023/12/26 04:10:00;;;;;;;5.45;1.98;;;;;;;11.56;100.00;100699.88;5280337;28;20628;-82
2023/12/26 04:12:32;;;;;;;6.57;2.35;;;;;;;11.61;100.00;100718.63;5279285;28;20290;-82
2023/12/26 04:15:04;;;;;;;5.47;1.70;;;;;;;11.58;100.00;100722.34;5282452;28;20033;-82
2023/12/26 04:17:36;;;;;;;6.00;1.63;;;;;;;11.58;100.00;100719.72;5282393;28;20285;-82
2023/12/26 04:20:08;;;;;;;5.47;1.88;;;;;;;11.57;100.00;100725.97;5282675;28;20113;-82
2023/12/26 04:22:40;;;;;;;6.45;1.52;;;;;;;11.61;100.00;100732.56;5278457;28;20032;-82
2023/12/26 04:25:12;;;;;;;5.05;1.40;;;;;;;11.62;100.00;100730.78;5280797;28;20291;-82
2023/12/26 04:27:44;;;;;;;5.88;1.60;;;;;;;11.57;100.00;100727.75;5282731;28;20032;-83
2023/12/26 04:30:17;;;;;;;7.18;1.50;;;;;;;11.62;100.00;100733.41;5279925;28;20058;-82
2023/12/26 04:32:49;;;;;;;3.15;1.23;;;;;;;11.55;100.00;100733.13;5280832;28;20036;-82
2023/12/26 04:35:21;;;;;;;6.25;1.85;;;;;;;11.57;100.00;100746.94;5280317;28;20050;-82
2023/12/26 04:37:52;;;;;;;7.00;1.80;;;;;;;11.55;100.00;100746.25;5278277;28;20042;-82
2023/12/26 04:40:24;;;;;;;5.35;1.27;;;;;;;11.57;100.00;100736.44;5280694;28;20465;-82
2023/12/26 04:43:02;;;;;;;8.23;1.40;;;;;;;11.62;100.00;100744.72;5281585;28;20389;-82
2023/12/26 04:45:36;;;;;;;5.20;1.20;;;;;;;11.52;100.00;100761.47;5265233;28;20044;-82
2023/12/26 04:48:08;;;;;;;6.38;1.30;;;;;;;11.44;100.00;100759.53;5281839;28;20496;-82
2023/12/26 04:50:40;;;;;;;6.15;1.50;;;;;;;11.42;100.00;100772.75;5279313;28;20462;-82
2023/12/26 04:53:12;;;;;;;9.05;1.83;;;;;;;11.45;100.00;100769.88;5264396;28;20055;-83
2023/12/26 04:55:44;;;;;;;8.10;1.65;;;;;;;11.44;100.00;100778.72;5282770;28;20055;-83
2023/12/26 04:58:16;;;;;;;8.65;1.38;;;;;;;11.43;100.00;100782.28;5282773;28;20032;-82
2023/12/26 05:00:48;;;;;;;9.20;2.00;;;;;;;11.43;100.00;100784.09;5284266;28;20028;-82
2023/12/26 05:03:20;;;;;;;5.45;1.65;;;;;;;11.34;100.00;100788.38;5266036;28;20032;-82
2023/12/26 05:05:51;;;;;;;6.40;1.60;;;;;;;11.37;100.00;100805.63;5283503;28;20486;-82
2023/12/26 05:08:23;;;;;;;8.30;1.85;;;;;;;11.36;100.00;100817.88;5283445;28;20482;-82
2023/12/26 05:10:55;;;;;;;6.75;1.40;;;;;;;11.34;100.00;100817.22;5282497;28;20043;-82
2023/12/26 05:13:27;;;;;;;9.57;2.35;;;;;;;11.32;100.00;100815.69;5282170;28;20046;-82
2023/12/26 05:16:03;;;;;;;10.15;2.28;;;;;;;11.31;100.00;100814.84;5281793;28;20028;-82
2023/12/26 05:18:35;;;;;;;9.07;2.08;;;;;;;11.27;100.00;100816.09;5283196;28;20032;-82
2023/12/26 05:21:16;;;;;;;10.02;2.50;;;;;;;11.33;100.00;100818.19;5285158;28;20496;-82
2023/12/26 05:23:48;;;;;;;9.95;1.52;;;;;;;11.17;100.00;100833.59;5288182;28;20035;-82
2023/12/26 05:26:20;;;;;;;7.95;2.03;;;;;;;11.19;100.00;100840.38;5285011;28;20029;-82
2023/12/26 05:28:52;;;;;;;7.93;1.63;;;;;;;11.11;100.00;100842.00;5284608;28;20378;-82
2023/12/26 05:31:24;;;;;;;5.57;1.63;;;;;;;11.00;100.00;100844.72;5284748;28;20054;-82
2023/12/26 05:33:55;;;;;;;6.88;1.73;;;;;;;11.03;100.00;100847.09;5285499;28;20029;-82
2023/12/26 05:36:27;;;;;;;6.05;1.70;;;;;;;10.97;100.00;100856.31;5275283;28;20112;-82
2023/12/26 05:39:00;;;;;;;7.25;1.95;;;;;;;10.90;100.00;100861.22;5285903;28;20123;-82
2023/12/26 05:41:31;;;;;;;6.82;1.58;;;;;;;10.90;100.00;100863.84;5273260;28;20040;-82
2023/12/26 05:44:03;;;;;;;7.45;1.58;;;;;;;10.87;100.00;100861.53;5283952;28;20135;-82
2023/12/26 05:46:35;;;;;;;6.10;1.67;;;;;;;10.79;100.00;100853.47;5285429;28;20039;-82
2023/12/26 05:49:07;;;;;;;6.38;1.45;;;;;;;10.78;100.00;100882.44;5287001;28;20032;-82
2023/12/26 05:51:39;;;;;;;7.22;1.42;;;;;;;10.76;100.00;100890.44;5282205;28;20032;-82
2023/12/26 05:54:11;;;;;;;6.28;1.30;;;;;;;10.77;100.00;100896.50;5287497;28;20650;-82
2023/12/26 05:56:46;;;;;;;5.03;1.20;;;;;;;10.69;100.00;100908.47;5278624;28;20052;-82
2023/12/26 05:59:17;;;;;;;5.53;1.27;;;;;;;10.66;100.00;100916.56;5286936;28;20417;-82
2023/12/26 06:01:49;;;;;;;7.68;1.55;;;;;;;10.66;100.00;100921.81;5289079;28;20146;-82
2023/12/26 06:04:21;;;;;;;6.45;1.85;;;;;;;10.62;100.00;100919.59;5288406;28;20022;-82
2023/12/26 06:06:53;;;;;;;7.35;1.80;;;;;;;10.57;100.00;100924.34;5288912;28;20035;-82
2023/12/26 06:09:26;;;;;;;6.88;1.35;;;;;;;10.58;100.00;100931.28;5289147;28;20544;-82
2023/12/26 06:11:58;;;;;;;10.68;2.03;;;;;;;10.55;100.00;100926.28;5289669;28;20302;-82
2023/12/26 06:14:30;;;;;;;5.18;1.67;;;;;;;10.47;100.00;100919.91;5291364;28;20032;-82
2023/12/26 06:17:02;;;;;;;4.47;1.38;;;;;;;10.47;100.00;100924.31;5287589;28;20036;-82
2023/12/26 06:19:34;;;;;;;5.72;1.40;;;;;;;10.42;100.00;100932.56;5290180;28;20492;-82
2023/12/26 06:22:06;;;;;;;8.52;1.40;;;;;;;10.32;100.00;100944.75;5292216;28;20024;-82
2023/12/26 06:24:38;;;;;;;5.60;1.20;;;;;;;10.24;100.00;100955.81;5288332;28;20042;-83
2023/12/26 06:27:10;;;;;;;8.10;2.00;;;;;;;10.23;100.00;100969.88;5289473;28;20099;-82
2023/12/26 06:29:42;;;;;;;5.82;1.30;;;;;;;10.17;100.00;100972.13;5290028;28;20024;-81
2023/12/26 06:32:14;;;;;;;6.03;1.15;;;;;;;10.14;100.00;100990.72;5289312;28;20564;-81
2023/12/26 06:34:45;;;;;;;7.00;1.30;;;;;;;10.12;100.00;100985.59;5289897;28;20460;-82
2023/12/26 06:37:17;;;;;;;10.38;2.03;;;;;;;10.10;100.00;100995.34;5287538;28;20031;-82
2023/12/26 06:39:49;;;;;;;4.78;1.45;;;;;;;10.10;100.00;100995.34;5285792;28;20028;-82
2023/12/26 06:42:22;;;;;;;6.35;1.63;;;;;;;10.06;100.00;100993.13;5289066;28;20028;-82
2023/12/26 06:44:53;;;;;;;8.43;1.73;;;;;;;10.05;100.00;100986.22;5289777;28;20370;-82
2023/12/26 06:47:25;;;;;;;4.75;1.27;;;;;;;9.98;100.00;100972.78;5289632;28;20115;-82
2023/12/26 06:49:58;;;;;;;8.18;1.85;;;;;;;9.89;100.00;100984.84;5286999;28;20062;-82
2023/12/26 06:52:29;;;;;;;6.47;2.05;;;;;;;9.87;100.00;100980.66;5290680;28;20031;-82
2023/12/26 06:55:01;;;;;;;6.72;1.50;;;;;;;9.87;100.00;100984.13;5288924;28;20131;-82
2023/12/26 06:57:33;;;;;;;5.60;1.20;;;;;;;9.83;100.00;100997.56;5288823;28;20042;-82
2023/12/26 07:00:06;;;;;;;8.60;2.13;;;;;;;9.80;100.00;101001.25;5289398;28;20735;-82
2023/12/26 07:02:38;;;;;;;7.63;2.47;;;;;;;9.77;100.00;100995.41;5287982;28;20040;-82
2023/12/26 07:05:09;;;;;;;6.40;1.70;;;;;;;9.65;100.00;100984.16;5286006;28;20066;-82
2023/12/26 07:07:41;;;;;;;6.70;2.08;;;;;;;9.68;100.00;100995.19;5287270;28;20101;-82
2023/12/26 07:10:13;;;;;;;6.30;1.40;;;;;;;9.72;100.00;101012.31;5291332;28;20040;-82
2023/12/26 07:12:45;;;;;;;7.40;2.10;;;;;;;9.70;100.00;101022.09;5277925;28;20093;-82
2023/12/26 07:15:17;;;;;;;8.32;1.73;;;;;;;9.75;100.00;101042.66;5289220;28;20032;-82
2023/12/26 07:17:49;;;;;;;5.72;1.58;;;;;;;9.67;100.00;101035.41;5285940;28;20040;-82
2023/12/26 07:20:21;;;;;;;6.75;2.10;;;;;;;9.68;100.00;101051.94;5281256;28;20131;-82
2023/12/26 07:22:53;;;;;;;8.45;1.70;;;;;;;9.63;100.00;101043.63;5287663;28;20036;-82
2023/12/26 07:25:25;;;;;;;6.85;1.63;;;;;;;9.68;100.00;101050.13;5287872;28;20388;-82
2023/12/26 07:27:57;;;;;;;7.60;1.50;;;;;;;9.68;100.00;101070.25;5286188;28;20087;-82
2023/12/26 07:30:29;;;;;;;7.07;1.40;;;;;;;9.69;100.00;101071.91;5292026;28;20863;-82
2023/12/26 07:33:01;;;;;;;6.60;2.13;;;;;;;9.71;100.00;101078.69;5293875;28;20024;-82
2023/12/26 07:35:38;;;;;;;5.90;1.58;;;;;;;9.83;100.00;101073.44;5279592;28;20044;-82
2023/12/26 07:38:10;;;;;;;7.53;1.50;;;;;;;9.76;100.00;101062.63;5296009;28;20039;-82
2023/12/26 07:40:42;;;;;;;6.60;1.52;;;;;;;9.75;100.00;101074.06;5295916;28;20036;-82
2023/12/26 07:43:13;;;;;;;11.75;2.72;;;;;;;9.79;100.00;101077.25;5298934;28;20070;-82
2023/12/26 07:45:45;;;;;;;7.53;1.40;;;;;;;9.76;100.00;101083.56;5296785;28;20046;-82
2023/12/26 07:48:17;;;;;;;10.75;2.20;;;;;;;9.76;100.00;101091.41;5291783;28;20095;-83
2023/12/26 07:50:49;;;;;;;8.60;1.92;;;;;;;9.75;100.00;101095.81;5296790;28;20126;-82
2023/12/26 07:53:21;;;;;;;11.77;2.38;;;;;;;9.70;100.00;101102.38;5298638;28;20051;-84
2023/12/26 07:55:53;;;;;;;6.32;1.65;;;;;;;9.67;100.00;101111.28;5298285;28;20120;-83
2023/12/26 07:58:25;;;;;;;9.10;1.80;;;;;;;9.65;100.00;101115.78;5296480;28;20092;-83
2023/12/26 08:00:57;;;;;;;9.43;1.98;;;;;;;9.52;100.00;101117.66;5298359;28;20259;-83
2023/12/26 08:03:29;;;;;;;9.35;1.85;;;;;;;9.52;100.00;101117.66;5296744;28;20063;-83
2023/12/26 08:06:00;;;;;;;8.10;1.40;;;;;;;9.54;100.00;101141.09;5279179;28;20081;-84
2023/12/26 08:08:32;;;;;;;9.63;2.05;;;;;;;9.49;100.00;101136.22;5301271;28;20133;-83
2023/12/26 08:11:05;;;;;;;5.22;1.70;;;;;;;9.46;100.00;101137.25;5297026;28;20099;-83
2023/12/26 08:13:36;;;;;;;5.57;1.73;;;;;;;9.50;100.00;101140.47;5283959;28;20056;-83
2023/12/26 08:16:08;;;;;;;9.20;2.50;;;;;;;9.44;100.00;101130.50;5300195;28;20056;-83
2023/12/26 08:18:40;;;;;;;10.80;2.67;;;;;;;9.44;100.00;101130.50;5299389;28;20051;-83
2023/12/26 08:21:12;;;;;;;9.57;1.80;;;;;;;9.37;100.00;101137.13;5301965;28;20028;-83
2023/12/26 08:23:44;;;;;;;7.80;1.65;;;;;;;9.39;100.00;101149.13;5286271;28;20033;-83
2023/12/26 08:26:16;;;;;;;6.88;1.65;;;;;;;9.36;100.00;101146.75;5299003;28;20066;-83
2023/12/26 08:28:49;;;;;;;9.68;2.45;;;;;;;9.34;100.00;101151.25;5296160;28;20042;-83
2023/12/26 08:31:21;;;;;;;6.38;1.42;;;;;;;9.31;100.00;101161.13;5302683;28;20032;-83
2023/12/26 08:33:53;;;;;;;9.40;2.20;;;;;;;9.37;100.00;101173.75;5302529;28;20071;-83
2023/12/26 08:36:25;;;;;;;5.55;1.45;;;;;;;9.35;100.00;101179.06;5298013;28;20219;-83
2023/12/26 08:38:57;;;;;;;8.20;1.70;;;;;;;9.40;100.00;101184.81;5300944;28;20426;-83
2023/12/26 08:41:29;;;;;;;10.38;2.85;;;;;;;9.34;100.00;101179.19;5283393;28;20569;-83
2023/12/26 08:44:01;;;;;;;6.35;1.88;;;;;;;9.37;100.00;101192.88;5271800;28;20320;-83
2023/12/26 08:46:33;;;;;;;8.75;1.90;;;;;;;9.33;100.00;101196.66;5282179;28;20047;-82
2023/12/26 08:49:04;;;;;;;10.10;1.92;;;;;;;9.38;100.00;101204.16;5284446;28;20036;-83
2023/12/26 08:51:39;;;;;;;10.48;2.08;;;;;;;9.40;100.00;101224.03;5270945;28;20044;-83
2023/12/26 08:54:11;;;;;;;9.38;2.63;;;;;;;9.34;100.00;101208.78;5284145;28;20039;-83
2023/12/26 08:56:43;;;;;;;9.32;2.70;;;;;;;9.45;100.00;101221.06;5285327;28;20564;-83
2023/12/26 08:59:15;;;;;;;9.70;2.45;;;;;;;9.44;100.00;101225.47;5283634;28;20032;-83
2023/12/26 09:01:47;;;;;;;9.68;2.38;;;;;;;9.38;100.00;101220.69;5286444;28;20021;-82
2023/12/26 09:04:19;;;;;;;10.55;2.25;;;;;;;9.47;100.00;101224.38;5285229;28;20028;-82
2023/12/26 09:06:51;;;;;;;8.82;2.05;;;;;;;9.51;100.00;101228.47;5283605;28;20032;-83
2023/12/26 09:09:26;;;;;;;7.72;2.03;;;;;;;9.58;100.00;101234.06;5282239;28;20028;-83
2023/12/26 09:11:59;;;;;;;7.63;1.67;;;;;;;9.67;100.00;101243.84;5284213;28;20373;-83
2023/12/26 09:14:31;;;;;;;11.35;2.65;;;;;;;9.66;100.00;101252.63;5283726;28;20036;-83
2023/12/26 09:17:03;;;;;;;13.20;2.20;;;;;;;9.71;100.00;101248.75;5281645;28;20042;-82
2023/12/26 09:19:35;;;;;;;7.95;1.90;;;;;;;9.77;100.00;101257.91;5280161;28;20040;-82
2023/12/26 09:22:07;;;;;;;10.07;2.65;;;;;;;9.79;100.00;101258.63;5280510;28;20465;-83
2023/12/26 09:24:42;;;;;;;12.45;3.00;;;;;;;9.76;100.00;101258.84;5284628;28;20040;-83
2023/12/26 09:27:14;;;;;;;10.30;2.53;;;;;;;9.72;100.00;101273.13;5280373;28;20366;-82
2023/12/26 09:29:46;;;;;;;12.13;2.47;;;;;;;9.65;100.00;101270.13;5283579;28;20043;-83
2023/12/26 09:32:17;;;;;;;11.68;2.35;;;;;;;9.64;100.00;101265.84;5271962;28;20040;-83
2023/12/26 09:34:49;;;;;;;10.68;3.20;;;;;;;9.59;100.00;101273.22;5285497;28;20834;-83
2023/12/26 09:37:21;;;;;;;9.93;1.98;;;;;;;9.60;100.00;101287.13;5285433;28;20028;-83
2023/12/26 09:39:53;;;;;;;9.32;2.47;;;;;;;9.62;100.00;101283.44;5285605;28;20056;-82
2023/12/26 09:42:25;;;;;;;9.77;2.17;;;;;;;9.54;100.00;101292.78;5286088;28;20115;-82
2023/12/26 09:44:58;;;;;;;9.80;1.90;;;;;;;9.57;100.00;101303.88;5285784;28;20036;-83
2023/12/26 09:47:31;;;;;;;9.52;2.35;;;;;;;9.59;100.00;101319.47;5287937;28;20279;-83
2023/12/26 09:50:04;;;;;;;9.82;2.25;;;;;;;9.57;100.00;101321.34;5285300;28;20028;-82
2023/12/26 09:52:37;;;;;;;14.77;2.67;;;;;;;9.64;100.00;101328.63;5288168;28;20040;-82
2023/12/26 09:55:09;;;;;;;11.88;3.33;;;;;;;9.60;100.00;101329.81;5286612;28;20040;-82
2023/12/26 09:57:42;;;;;;;11.40;2.20;;;;;;;9.55;100.00;101333.72;5276633;28;20082;-83
2023/12/26 10:00:14;;;;;;;10.90;2.13;;;;;;;9.54;100.00;101339.88;5278492;28;20348;-83
2023/12/26 10:02:46;;;;;;;10.35;2.35;;;;;;;9.51;100.00;101343.56;5288929;28;20473;-83
2023/12/26 10:05:18;;;;;;;12.85;2.10;;;;;;;9.50;100.00;101352.31;5289709;28;20028;-82
2023/12/26 10:07:50;;;;;;;9.50;2.35;;;;;;;9.52;100.00;101357.47;5287513;28;20032;-83
2023/12/26 10:10:22;;;;;;;10.48;2.35;;;;;;;9.58;100.00;101357.84;5288805;28;20295;-82
2023/12/26 10:12:54;;;;;;;9.68;2.42;;;;;;;9.65;100.00;101363.47;5288720;28;20512;-82
2023/12/26 10:15:26;;;;;;;8.93;2.08;;;;;;;9.71;100.00;101358.63;5275362;28;20041;-82
2023/12/26 10:17:58;;;;;;;10.07;2.60;;;;;;;9.78;100.00;101358.19;5286363;28;20428;-82
2023/12/26 10:20:33;;;;;;;12.18;2.42;;;;;;;9.85;100.00;101365.47;5286373;28;20036;-82
2023/12/26 10:23:05;;;;;;;11.82;2.65;;;;;;;9.83;100.00;101369.97;5286021;28;20257;-83
2023/12/26 10:25:36;;;;;;;10.00;2.05;;;;;;;9.91;100.00;101382.50;5285072;28;20040;-83
2023/12/26 10:28:09;;;;;;;10.68;2.80;;;;;;;9.98;100.00;101386.34;5286802;28;20020;-83
2023/12/26 10:30:41;;;;;;;12.65;2.65;;;;;;;10.04;100.00;101392.91;5284735;28;20024;-83
2023/12/26 10:33:23;;;;;;;13.88;2.97;;;;;;;10.20;100.00;101385.59;5283657;28;20032;-83
2023/12/26 10:36:04;;;;;;;8.98;2.05;;;;;;;10.22;100.00;101389.75;5282639;28;20024;-83
2023/12/26 10:38:39;;;;;;;11.65;2.40;;;;;;;10.10;100.00;101384.59;5283674;28;20045;-83
2023/12/26 10:41:24;;;;;;;9.57;2.13;;;;;;;10.38;100.00;101386.00;5283977;28;20040;-83
2023/12/26 10:43:58;;;;;;;10.02;2.30;;;;;;;10.22;100.00;101381.88;5265684;28;20048;-83
2023/12/26 10:46:31;;;;;;;10.20;2.10;;;;;;;10.31;100.00;101382.22;5284020;28;20040;-83
2023/12/26 10:49:06;;;;;;;8.73;1.95;;;;;;;10.36;100.00;101382.69;5283291;28;20032;-83
2023/12/26 10:51:44;;;;;;;7.55;1.83;;;;;;;10.33;100.00;101368.03;5282124;28;20032;-83
2023/12/26 10:54:20;;;;;;;12.05;2.47;;;;;;;10.38;100.00;101367.69;5273555;28;20041;-83
2023/12/26 10:56:52;;;;;;;9.75;2.10;;;;;;;10.37;100.00;101369.47;5286067;28;20389;-83
2023/12/26 10:59:24;;;;;;;7.53;1.98;;;;;;;10.42;100.00;101388.31;5283693;28;20032;-83
2023/12/26 11:01:56;;;;;;;8.65;2.05;;;;;;;10.48;100.00;101387.81;5279215;28;20645;-83
2023/12/26 11:04:29;;;;;;;10.48;2.10;;;;;;;10.50;100.00;101384.28;5283181;28;20039;-83
2023/12/26 11:07:00;;;;;;;11.70;2.60;;;;;;;10.58;100.00;101393.22;5285495;28;20098;-84
2023/12/26 11:09:32;;;;;;;8.32;2.17;;;;;;;10.58;100.00;101397.63;5266153;28;20040;-83
2023/12/26 11:12:04;;;;;;;12.20;2.45;;;;;;;10.47;100.00;101382.72;5285077;28;20373;-83
2023/12/26 11:14:37;;;;;;;10.23;2.55;;;;;;;10.62;100.00;101399.88;5274420;28;20052;-82
2023/12/26 11:17:10;;;;;;;9.63;2.47;;;;;;;10.69;100.00;101410.75;5287307;28;20044;-82
2023/12/26 11:19:42;;;;;;;8.00;2.40;;;;;;;10.68;100.00;101414.28;5283671;28;20524;-82
2023/12/26 11:22:14;;;;;;;10.43;2.70;;;;;;;10.57;100.00;101396.78;5285252;28;20039;-82
2023/12/26 11:24:46;;;;;;;13.23;3.08;;;;;;;10.73;100.00;101401.69;5284878;28;20039;-82
2023/12/26 11:27:18;;;;;;;9.40;2.40;;;;;;;10.79;100.00;101408.25;5273546;28;20400;-82
2023/12/26 11:29:50;;;;;;;8.57;2.55;;;;;;;10.81;100.00;101414.22;5283191;28;20115;-82
2023/12/26 11:32:22;;;;;;;8.93;2.38;;;;;;;10.85;100.00;101411.22;5281562;28;20047;-82
2023/12/26 11:34:54;;;;;;;11.05;2.25;;;;;;;10.91;100.00;101416.00;5285309;28;20043;-83
2023/12/26 11:37:26;;;;;;;13.25;3.53;;;;;;;10.90;100.00;101416.13;5285419;28;20113;-83
2023/12/26 11:39:59;;;;;;;8.32;2.00;;;;;;;11.10;100.00;101430.28;5285533;28;20051;-83
2023/12/26 11:42:31;;;;;;;11.00;2.40;;;;;;;11.20;100.00;101433.88;5271591;28;20043;-83